< Cyclone 198005 1980 Season Cyclone 198007 >
Cyclone 198006 (BRIAN)
General InformationTrack Information on Google Maps || ResourceGoogle EarthGE AnimationAtom FeedGeoJSON
Detalied Best Track (Time Zone = UTC)
Year Month Day Hour Lat. Long. Pressure (hPa) Wind (kt) Class Image Chart
1980 1 18 00 -10.0 130.4 1003 0 0 -- --
1980 1 18 06 -11.1 129.8 1003 0 0 -- --
1980 1 18 12 -12.1 128.9 1002 0 0 -- --
1980 1 18 18 -12.7 127.7 1001 0 0 -- --
1980 1 19 00 -13.1 126.6 1000 0 0 -- --
1980 1 19 06 -13.3 125.7 998 0 0 -- --
1980 1 19 12 -13.3 124.6 996 0 0 -- --
1980 1 19 18 -13.3 123.2 993 0 0 -- --
1980 1 20 00 -13.7 121.7 990 0 0 -- --
1980 1 20 06 -14.2 120.4 986 0 0 -- --
1980 1 20 12 -15.1 119.0 982 0 0 -- --
1980 1 20 18 -15.7 117.2 975 0 0 -- --
1980 1 21 00 -15.7 115.3 970 0 0 -- --
1980 1 21 06 -16.0 113.9 963 0 0 -- --
1980 1 21 12 -16.2 112.2 955 0 0 -- --
1980 1 21 18 -16.7 111.7 948 0 0 -- --
1980 1 22 00 -17.0 108.9 940 0 0 -- --
1980 1 22 06 -17.1 107.3 937 0 0 -- --
1980 1 22 12 -17.2 105.8 934 0 0 -- --
1980 1 22 18 -17.3 104.4 932 0 0 -- --
1980 1 23 00 -17.9 103.0 930 0 0 -- --
1980 1 23 06 -18.4 101.8 933 0 0 -- --
1980 1 23 12 -19.2 100.7 940 0 0 -- --
1980 1 23 18 -19.9 99.8 948 0 0 -- --
1980 1 24 00 -20.8 98.6 955 0 0 -- --
1980 1 24 06 -21.7 97.6 961 0 0 -- --
1980 1 24 12 -22.6 96.5 966 0 0 -- --
1980 1 24 18 -23.5 95.4 971 0 0 -- --
1980 1 25 00 -24.5 94.4 975 0 0 -- --
1980 1 25 06 -25.6 93.2 979 0 0 -- --
1980 1 25 12 -27.4 92.3 983 0 0 -- --
1980 1 25 18 -29.2 92.3 987 0 0 -- --
1980 1 26 00 -30.3 92.7 990 0 0 -- --
1980 1 26 06 -31.1 93.0 992 0 0 -- --
1980 1 26 12 -31.6 93.2 994 0 0 -- --
1980 1 26 18 -32.0 93.5 996 0 0 -- --
1980 1 27 00 -32.3 93.7 998 0 0 -- --
< Cyclone 198005 1980 Season Cyclone 198007 >

Help